sensor_id;sensor_type;location;lat;lon;timestamp;P1;durP1;ratioP1;P2;durP2;ratioP2
55589;SDS011;41452;42.780;23.116;2023-03-01T00:00:36;3.30;;;2.03;;
55589;SDS011;41452;42.780;23.116;2023-03-01T00:03:02;3.33;;;1.83;;
55589;SDS011;41452;42.780;23.116;2023-03-01T00:05:28;3.17;;;1.50;;
55589;SDS011;41452;42.780;23.116;2023-03-01T00:07:53;3.50;;;1.95;;
55589;SDS011;41452;42.780;23.116;2023-03-01T00:10:18;3.95;;;1.73;;
55589;SDS011;41452;42.780;23.116;2023-03-01T00:12:44;3.42;;;2.05;;
55589;SDS011;41452;42.780;23.116;2023-03-01T00:15:09;3.22;;;1.95;;
55589;SDS011;41452;42.780;23.116;2023-03-01T00:17:35;4.53;;;2.03;;
55589;SDS011;41452;42.780;23.116;2023-03-01T00:20:00;5.10;;;2.00;;
55589;SDS011;41452;42.780;23.116;2023-03-01T00:22:26;8.05;;;1.83;;
55589;SDS011;41452;42.780;23.116;2023-03-01T00:24:53;3.08;;;1.73;;
55589;SDS011;41452;42.780;23.116;2023-03-01T00:27:18;3.70;;;1.73;;
55589;SDS011;41452;42.780;23.116;2023-03-01T00:29:44;4.78;;;1.90;;
55589;SDS011;41452;42.780;23.116;2023-03-01T00:32:10;2.92;;;1.70;;
55589;SDS011;41452;42.780;23.116;2023-03-01T00:34:35;3.30;;;1.83;;
55589;SDS011;41452;42.780;23.116;2023-03-01T00:37:00;3.90;;;1.83;;
55589;SDS011;41452;42.780;23.116;2023-03-01T00:39:30;3.83;;;1.58;;
55589;SDS011;41452;42.780;23.116;2023-03-01T00:41:56;3.05;;;1.60;;
55589;SDS011;41452;42.780;23.116;2023-03-01T00:44:21;2.85;;;1.20;;
55589;SDS011;41452;42.780;23.116;2023-03-01T00:46:47;5.32;;;1.80;;
55589;SDS011;41452;42.780;23.116;2023-03-01T00:49:12;3.45;;;1.65;;
55589;SDS011;41452;42.780;23.116;2023-03-01T00:51:38;3.40;;;1.48;;
55589;SDS011;41452;42.780;23.116;2023-03-01T00:54:07;3.05;;;1.75;;
55589;SDS011;41452;42.780;23.116;2023-03-01T00:56:34;4.18;;;2.10;;
55589;SDS011;41452;42.780;23.116;2023-03-01T00:58:59;3.72;;;1.83;;
55589;SDS011;41452;42.780;23.116;2023-03-01T01:01:26;3.28;;;1.63;;
55589;SDS011;41452;42.780;23.116;2023-03-01T01:03:57;4.50;;;1.70;;
55589;SDS011;41452;42.780;23.116;2023-03-01T01:08:54;4.43;;;1.85;;
55589;SDS011;41452;42.780;23.116;2023-03-01T01:11:21;2.97;;;1.52;;
55589;SDS011;41452;42.780;23.116;2023-03-01T01:13:48;3.05;;;1.50;;
55589;SDS011;41452;42.780;23.116;2023-03-01T01:16:14;3.85;;;1.80;;
55589;SDS011;41452;42.780;23.116;2023-03-01T01:18:42;1.95;;;1.33;;
55589;SDS011;41452;42.780;23.116;2023-03-01T01:21:09;2.33;;;1.33;;
55589;SDS011;41452;42.780;23.116;2023-03-01T01:23:36;2.35;;;1.23;;
55589;SDS011;41452;42.780;23.116;2023-03-01T01:26:04;5.57;;;1.80;;
55589;SDS011;41452;42.780;23.116;2023-03-01T01:28:34;2.72;;;1.30;;
55589;SDS011;41452;42.780;23.116;2023-03-01T01:30:59;3.65;;;1.58;;
55589;SDS011;41452;42.780;23.116;2023-03-01T01:33:25;2.85;;;1.55;;
55589;SDS011;41452;42.780;23.116;2023-03-01T01:35:52;4.10;;;1.50;;
55589;SDS011;41452;42.780;23.116;2023-03-01T01:38:17;3.10;;;1.60;;
55589;SDS011;41452;42.780;23.116;2023-03-01T01:40:46;2.88;;;1.55;;
55589;SDS011;41452;42.780;23.116;2023-03-01T01:43:23;3.47;;;1.90;;
55589;SDS011;41452;42.780;23.116;2023-03-01T01:45:50;2.30;;;1.52;;
55589;SDS011;41452;42.780;23.116;2023-03-01T01:48:20;2.55;;;1.75;;
55589;SDS011;41452;42.780;23.116;2023-03-01T01:50:59;2.70;;;1.45;;
55589;SDS011;41452;42.780;23.116;2023-03-01T01:53:25;3.95;;;1.80;;
55589;SDS011;41452;42.780;23.116;2023-03-01T01:55:53;3.95;;;1.55;;
55589;SDS011;41452;42.780;23.116;2023-03-01T01:58:22;2.75;;;1.42;;
55589;SDS011;41452;42.780;23.116;2023-03-01T02:00:52;2.88;;;1.48;;
55589;SDS011;41452;42.780;23.116;2023-03-01T02:03:18;6.78;;;1.25;;
55589;SDS011;41452;42.780;23.116;2023-03-01T02:08:23;2.03;;;1.33;;
55589;SDS011;41452;42.780;23.116;2023-03-01T02:10:52;2.38;;;1.38;;
55589;SDS011;41452;42.780;23.116;2023-03-01T02:13:18;8.68;;;1.60;;
55589;SDS011;41452;42.780;23.116;2023-03-01T02:15:43;3.33;;;1.70;;
55589;SDS011;41452;42.780;23.116;2023-03-01T02:18:10;6.13;;;2.53;;
55589;SDS011;41452;42.780;23.116;2023-03-01T02:20:59;2.67;;;1.50;;
55589;SDS011;41452;42.780;23.116;2023-03-01T02:23:37;2.28;;;1.30;;
55589;SDS011;41452;42.780;23.116;2023-03-01T02:26:21;1.85;;;1.30;;
55589;SDS011;41452;42.780;23.116;2023-03-01T02:28:56;2.15;;;1.40;;
55589;SDS011;41452;42.780;23.116;2023-03-01T02:31:21;2.42;;;1.40;;
55589;SDS011;41452;42.780;23.116;2023-03-01T02:34:06;3.50;;;1.20;;
55589;SDS011;41452;42.780;23.116;2023-03-01T02:36:35;2.17;;;1.35;;
55589;SDS011;41452;42.780;23.116;2023-03-01T02:39:06;2.38;;;1.40;;
55589;SDS011;41452;42.780;23.116;2023-03-01T02:41:39;2.80;;;1.25;;
55589;SDS011;41452;42.780;23.116;2023-03-01T02:44:07;1.67;;;1.30;;
55589;SDS011;41452;42.780;23.116;2023-03-01T02:46:33;3.40;;;1.60;;
55589;SDS011;41452;42.780;23.116;2023-03-01T02:57:11;1.87;;;1.23;;
55589;SDS011;41452;42.780;23.116;2023-03-01T02:59:37;3.85;;;1.50;;
55589;SDS011;41452;42.780;23.116;2023-03-01T03:02:07;2.55;;;1.38;;
55589;SDS011;41452;42.780;23.116;2023-03-01T03:04:45;2.22;;;1.35;;
55589;SDS011;41452;42.780;23.116;2023-03-01T03:07:11;2.25;;;1.20;;
55589;SDS011;41452;42.780;23.116;2023-03-01T03:09:36;2.20;;;1.40;;
55589;SDS011;41452;42.780;23.116;2023-03-01T03:12:02;2.80;;;1.65;;
55589;SDS011;41452;42.780;23.116;2023-03-01T03:14:27;3.00;;;1.63;;
55589;SDS011;41452;42.780;23.116;2023-03-01T03:16:53;5.18;;;1.38;;
55589;SDS011;41452;42.780;23.116;2023-03-01T03:19:18;1.67;;;1.15;;
55589;SDS011;41452;42.780;23.116;2023-03-01T03:21:44;2.67;;;1.25;;
55589;SDS011;41452;42.780;23.116;2023-03-01T03:24:10;2.50;;;0.95;;
55589;SDS011;41452;42.780;23.116;2023-03-01T03:26:36;2.38;;;1.13;;
55589;SDS011;41452;42.780;23.116;2023-03-01T03:29:02;2.33;;;0.90;;
55589;SDS011;41452;42.780;23.116;2023-03-01T03:31:27;2.40;;;1.00;;
55589;SDS011;41452;42.780;23.116;2023-03-01T03:33:53;5.57;;;1.00;;
55589;SDS011;41452;42.780;23.116;2023-03-01T03:36:20;3.38;;;1.40;;
55589;SDS011;41452;42.780;23.116;2023-03-01T03:38:47;3.25;;;1.30;;
55589;SDS011;41452;42.780;23.116;2023-03-01T03:41:13;1.50;;;0.90;;
55589;SDS011;41452;42.780;23.116;2023-03-01T03:43:40;2.22;;;1.00;;
55589;SDS011;41452;42.780;23.116;2023-03-01T03:46:42;1.10;;;0.85;;
55589;SDS011;41452;42.780;23.116;2023-03-01T03:49:08;2.42;;;1.20;;
55589;SDS011;41452;42.780;23.116;2023-03-01T03:51:33;2.20;;;1.17;;
55589;SDS011;41452;42.780;23.116;2023-03-01T03:53:58;1.23;;;0.85;;
55589;SDS011;41452;42.780;23.116;2023-03-01T03:56:24;2.47;;;1.20;;
55589;SDS011;41452;42.780;23.116;2023-03-01T03:59:08;1.63;;;1.10;;
55589;SDS011;41452;42.780;23.116;2023-03-01T04:01:36;1.33;;;0.93;;
55589;SDS011;41452;42.780;23.116;2023-03-01T04:04:01;2.20;;;1.13;;
55589;SDS011;41452;42.780;23.116;2023-03-01T04:06:29;2.72;;;1.30;;
55589;SDS011;41452;42.780;23.116;2023-03-01T04:08:54;2.20;;;1.40;;
55589;SDS011;41452;42.780;23.116;2023-03-01T04:11:23;1.98;;;1.17;;
55589;SDS011;41452;42.780;23.116;2023-03-01T04:13:52;2.53;;;1.40;;
55589;SDS011;41452;42.780;23.116;2023-03-01T04:16:19;2.22;;;0.95;;
55589;SDS011;41452;42.780;23.116;2023-03-01T04:18:44;5.13;;;1.70;;
55589;SDS011;41452;42.780;23.116;2023-03-01T04:21:11;1.40;;;0.93;;
55589;SDS011;41452;42.780;23.116;2023-03-01T04:23:37;1.65;;;1.13;;
55589;SDS011;41452;42.780;23.116;2023-03-01T04:26:03;2.28;;;1.13;;
55589;SDS011;41452;42.780;23.116;2023-03-01T04:28:33;2.05;;;1.20;;
55589;SDS011;41452;42.780;23.116;2023-03-01T04:31:06;2.03;;;1.20;;
55589;SDS011;41452;42.780;23.116;2023-03-01T04:33:41;2.13;;;1.35;;
55589;SDS011;41452;42.780;23.116;2023-03-01T04:36:08;1.83;;;1.00;;
55589;SDS011;41452;42.780;23.116;2023-03-01T04:38:35;2.42;;;1.40;;
55589;SDS011;41452;42.780;23.116;2023-03-01T04:41:09;2.00;;;1.30;;
55589;SDS011;41452;42.780;23.116;2023-03-01T04:43:36;0.85;;;0.80;;
55589;SDS011;41452;42.780;23.116;2023-03-01T04:46:06;1.50;;;1.10;;
55589;SDS011;41452;42.780;23.116;2023-03-01T04:48:35;1.77;;;1.13;;
55589;SDS011;41452;42.780;23.116;2023-03-01T04:51:01;0.90;;;0.70;;
55589;SDS011;41452;42.780;23.116;2023-03-01T04:53:27;2.08;;;0.90;;
55589;SDS011;41452;42.780;23.116;2023-03-01T04:55:56;1.63;;;1.10;;
55589;SDS011;41452;42.780;23.116;2023-03-01T04:58:22;1.70;;;1.10;;
55589;SDS011;41452;42.780;23.116;2023-03-01T05:00:49;2.17;;;1.10;;
55589;SDS011;41452;42.780;23.116;2023-03-01T05:03:14;1.30;;;0.90;;
55589;SDS011;41452;42.780;23.116;2023-03-01T05:05:43;2.65;;;1.48;;
55589;SDS011;41452;42.780;23.116;2023-03-01T05:08:09;1.25;;;0.88;;
55589;SDS011;41452;42.780;23.116;2023-03-01T05:10:42;3.03;;;1.02;;
55589;SDS011;41452;42.780;23.116;2023-03-01T05:13:17;2.25;;;1.23;;
55589;SDS011;41452;42.780;23.116;2023-03-01T05:15:48;1.33;;;1.08;;
55589;SDS011;41452;42.780;23.116;2023-03-01T05:18:19;1.80;;;1.13;;
55589;SDS011;41452;42.780;23.116;2023-03-01T05:20:44;3.88;;;1.42;;
55589;SDS011;41452;42.780;23.116;2023-03-01T05:23:10;0.82;;;0.75;;
55589;SDS011;41452;42.780;23.116;2023-03-01T05:25:36;1.45;;;1.00;;
55589;SDS011;41452;42.780;23.116;2023-03-01T05:28:05;1.13;;;0.93;;
55589;SDS011;41452;42.780;23.116;2023-03-01T05:30:32;1.45;;;1.02;;
55589;SDS011;41452;42.780;23.116;2023-03-01T05:32:59;3.35;;;1.20;;
55589;SDS011;41452;42.780;23.116;2023-03-01T05:35:25;1.83;;;1.05;;
55589;SDS011;41452;42.780;23.116;2023-03-01T05:37:50;2.00;;;1.33;;
55589;SDS011;41452;42.780;23.116;2023-03-01T05:40:20;2.22;;;1.20;;
55589;SDS011;41452;42.780;23.116;2023-03-01T05:42:49;1.30;;;1.17;;
55589;SDS011;41452;42.780;23.116;2023-03-01T05:45:18;1.45;;;0.90;;
55589;SDS011;41452;42.780;23.116;2023-03-01T05:47:45;1.95;;;1.20;;
55589;SDS011;41452;42.780;23.116;2023-03-01T05:50:13;1.80;;;1.20;;
55589;SDS011;41452;42.780;23.116;2023-03-01T05:52:47;2.50;;;1.40;;
55589;SDS011;41452;42.780;23.116;2023-03-01T05:55:15;1.08;;;0.85;;
55589;SDS011;41452;42.780;23.116;2023-03-01T05:57:45;2.60;;;1.13;;
55589;SDS011;41452;42.780;23.116;2023-03-01T06:00:12;4.40;;;1.10;;
55589;SDS011;41452;42.780;23.116;2023-03-01T06:02:38;1.40;;;1.13;;
55589;SDS011;41452;42.780;23.116;2023-03-01T06:05:05;1.35;;;0.85;;
55589;SDS011;41452;42.780;23.116;2023-03-01T06:07:32;1.85;;;1.30;;
55589;SDS011;41452;42.780;23.116;2023-03-01T06:09:57;1.85;;;1.17;;
55589;SDS011;41452;42.780;23.116;2023-03-01T06:12:23;1.55;;;1.15;;
55589;SDS011;41452;42.780;23.116;2023-03-01T06:14:48;1.10;;;0.80;;
55589;SDS011;41452;42.780;23.116;2023-03-01T06:17:14;1.48;;;1.17;;
55589;SDS011;41452;42.780;23.116;2023-03-01T06:19:39;1.75;;;1.02;;
55589;SDS011;41452;42.780;23.116;2023-03-01T06:22:05;5.78;;;1.13;;
55589;SDS011;41452;42.780;23.116;2023-03-01T06:24:30;4.03;;;1.27;;
55589;SDS011;41452;42.780;23.116;2023-03-01T06:26:55;2.15;;;1.13;;
55589;SDS011;41452;42.780;23.116;2023-03-01T06:29:21;1.20;;;0.90;;
55589;SDS011;41452;42.780;23.116;2023-03-01T06:31:47;1.15;;;0.75;;
55589;SDS011;41452;42.780;23.116;2023-03-01T06:34:13;1.58;;;0.90;;
55589;SDS011;41452;42.780;23.116;2023-03-01T06:36:39;2.03;;;1.10;;
55589;SDS011;41452;42.780;23.116;2023-03-01T06:39:04;0.85;;;0.73;;
55589;SDS011;41452;42.780;23.116;2023-03-01T06:41:30;2.38;;;1.05;;
55589;SDS011;41452;42.780;23.116;2023-03-01T06:43:56;1.52;;;1.10;;
55589;SDS011;41452;42.780;23.116;2023-03-01T06:46:21;1.48;;;0.98;;
55589;SDS011;41452;42.780;23.116;2023-03-01T06:48:47;2.33;;;1.20;;
55589;SDS011;41452;42.780;23.116;2023-03-01T06:51:12;2.20;;;1.42;;
55589;SDS011;41452;42.780;23.116;2023-03-01T06:53:38;3.72;;;1.75;;
55589;SDS011;41452;42.780;23.116;2023-03-01T06:56:03;3.08;;;1.60;;
55589;SDS011;41452;42.780;23.116;2023-03-01T06:58:29;2.78;;;1.90;;
55589;SDS011;41452;42.780;23.116;2023-03-01T07:00:54;3.35;;;1.75;;
55589;SDS011;41452;42.780;23.116;2023-03-01T07:03:19;3.72;;;1.95;;
55589;SDS011;41452;42.780;23.116;2023-03-01T07:05:45;5.20;;;2.80;;
55589;SDS011;41452;42.780;23.116;2023-03-01T07:08:13;3.35;;;1.70;;
55589;SDS011;41452;42.780;23.116;2023-03-01T07:10:38;5.20;;;2.35;;
55589;SDS011;41452;42.780;23.116;2023-03-01T07:13:03;6.78;;;2.80;;
55589;SDS011;41452;42.780;23.116;2023-03-01T07:15:31;3.45;;;2.00;;
55589;SDS011;41452;42.780;23.116;2023-03-01T07:17:57;6.25;;;2.30;;
55589;SDS011;41452;42.780;23.116;2023-03-01T07:20:23;2.30;;;1.80;;
55589;SDS011;41452;42.780;23.116;2023-03-01T07:22:50;2.45;;;1.55;;
55589;SDS011;41452;42.780;23.116;2023-03-01T07:25:16;2.80;;;1.40;;
55589;SDS011;41452;42.780;23.116;2023-03-01T07:27:42;2.80;;;1.70;;
55589;SDS011;41452;42.780;23.116;2023-03-01T07:30:07;3.90;;;2.22;;
55589;SDS011;41452;42.780;23.116;2023-03-01T07:32:34;3.33;;;1.85;;
55589;SDS011;41452;42.780;23.116;2023-03-01T07:34:59;3.40;;;1.50;;
55589;SDS011;41452;42.780;23.116;2023-03-01T07:37:24;3.72;;;2.35;;
55589;SDS011;41452;42.780;23.116;2023-03-01T07:39:50;4.28;;;2.10;;
55589;SDS011;41452;42.780;23.116;2023-03-01T07:42:15;3.90;;;2.08;;
55589;SDS011;41452;42.780;23.116;2023-03-01T07:44:40;3.67;;;1.70;;
55589;SDS011;41452;42.780;23.116;2023-03-01T07:47:06;3.72;;;1.65;;
55589;SDS011;41452;42.780;23.116;2023-03-01T07:49:31;3.03;;;1.75;;
55589;SDS011;41452;42.780;23.116;2023-03-01T07:51:57;3.90;;;1.88;;
55589;SDS011;41452;42.780;23.116;2023-03-01T07:54:22;2.47;;;1.38;;
55589;SDS011;41452;42.780;23.116;2023-03-01T07:56:48;2.47;;;1.40;;
55589;SDS011;41452;42.780;23.116;2023-03-01T07:59:13;3.13;;;1.42;;
55589;SDS011;41452;42.780;23.116;2023-03-01T08:01:39;3.35;;;1.67;;
55589;SDS011;41452;42.780;23.116;2023-03-01T08:04:04;3.10;;;1.60;;
55589;SDS011;41452;42.780;23.116;2023-03-01T08:06:33;2.92;;;1.52;;
55589;SDS011;41452;42.780;23.116;2023-03-01T08:08:59;3.80;;;1.83;;
55589;SDS011;41452;42.780;23.116;2023-03-01T08:11:25;5.47;;;1.80;;
55589;SDS011;41452;42.780;23.116;2023-03-01T08:13:53;3.00;;;1.88;;
55589;SDS011;41452;42.780;23.116;2023-03-01T08:16:18;4.45;;;2.10;;
55589;SDS011;41452;42.780;23.116;2023-03-01T08:18:44;3.05;;;1.70;;
55589;SDS011;41452;42.780;23.116;2023-03-01T08:21:10;3.65;;;2.03;;
55589;SDS011;41452;42.780;23.116;2023-03-01T08:23:38;3.58;;;1.95;;
55589;SDS011;41452;42.780;23.116;2023-03-01T08:26:08;1.80;;;1.30;;
55589;SDS011;41452;42.780;23.116;2023-03-01T08:28:41;2.67;;;1.83;;
55589;SDS011;41452;42.780;23.116;2023-03-01T08:31:24;2.63;;;1.67;;
55589;SDS011;41452;42.780;23.116;2023-03-01T08:33:50;4.03;;;1.52;;
55589;SDS011;41452;42.780;23.116;2023-03-01T08:36:20;2.95;;;1.67;;
55589;SDS011;41452;42.780;23.116;2023-03-01T08:38:50;3.42;;;1.80;;
55589;SDS011;41452;42.780;23.116;2023-03-01T08:41:16;3.38;;;1.90;;
55589;SDS011;41452;42.780;23.116;2023-03-01T08:43:41;6.22;;;2.45;;
55589;SDS011;41452;42.780;23.116;2023-03-01T08:46:07;4.72;;;2.03;;
55589;SDS011;41452;42.780;23.116;2023-03-01T08:48:33;5.03;;;2.25;;
55589;SDS011;41452;42.780;23.116;2023-03-01T08:51:11;4.15;;;1.75;;
55589;SDS011;41452;42.780;23.116;2023-03-01T08:53:38;2.95;;;1.67;;
55589;SDS011;41452;42.780;23.116;2023-03-01T08:56:04;3.72;;;1.80;;
55589;SDS011;41452;42.780;23.116;2023-03-01T08:58:30;3.60;;;1.65;;
55589;SDS011;41452;42.780;23.116;2023-03-01T09:00:55;3.08;;;1.85;;
55589;SDS011;41452;42.780;23.116;2023-03-01T09:03:24;1.33;;;1.08;;
55589;SDS011;41452;42.780;23.116;2023-03-01T09:05:50;4.63;;;1.33;;
55589;SDS011;41452;42.780;23.116;2023-03-01T09:08:17;5.43;;;2.38;;
55589;SDS011;41452;42.780;23.116;2023-03-01T09:10:43;3.03;;;2.05;;
55589;SDS011;41452;42.780;23.116;2023-03-01T09:13:08;3.80;;;2.22;;
55589;SDS011;41452;42.780;23.116;2023-03-01T09:15:36;5.53;;;2.13;;
55589;SDS011;41452;42.780;23.116;2023-03-01T09:18:02;6.63;;;2.72;;
55589;SDS011;41452;42.780;23.116;2023-03-01T09:20:27;5.95;;;3.25;;
55589;SDS011;41452;42.780;23.116;2023-03-01T09:22:53;3.65;;;2.30;;
55589;SDS011;41452;42.780;23.116;2023-03-01T09:25:18;7.78;;;2.90;;
55589;SDS011;41452;42.780;23.116;2023-03-01T09:27:43;5.32;;;3.10;;
55589;SDS011;41452;42.780;23.116;2023-03-01T09:30:09;5.13;;;3.03;;
55589;SDS011;41452;42.780;23.116;2023-03-01T09:32:35;3.92;;;2.72;;
55589;SDS011;41452;42.780;23.116;2023-03-01T09:35:00;6.57;;;3.35;;
55589;SDS011;41452;42.780;23.116;2023-03-01T09:37:26;5.90;;;3.38;;
55589;SDS011;41452;42.780;23.116;2023-03-01T09:39:52;5.10;;;3.08;;
55589;SDS011;41452;42.780;23.116;2023-03-01T09:42:17;3.72;;;2.65;;
55589;SDS011;41452;42.780;23.116;2023-03-01T09:44:48;4.80;;;2.38;;
55589;SDS011;41452;42.780;23.116;2023-03-01T09:47:18;4.83;;;2.67;;
55589;SDS011;41452;42.780;23.116;2023-03-01T09:49:53;5.75;;;2.97;;
55589;SDS011;41452;42.780;23.116;2023-03-01T09:52:40;2.55;;;2.08;;
55589;SDS011;41452;42.780;23.116;2023-03-01T09:55:14;12.05;;;3.22;;
55589;SDS011;41452;42.780;23.116;2023-03-01T09:57:58;4.40;;;2.83;;
55589;SDS011;41452;42.780;23.116;2023-03-01T10:00:43;5.25;;;3.17;;
55589;SDS011;41452;42.780;23.116;2023-03-01T10:03:25;4.28;;;2.33;;
55589;SDS011;41452;42.780;23.116;2023-03-01T10:05:57;6.43;;;3.20;;
55589;SDS011;41452;42.780;23.116;2023-03-01T10:08:41;6.40;;;3.08;;
55589;SDS011;41452;42.780;23.116;2023-03-01T10:11:23;4.40;;;2.80;;
55589;SDS011;41452;42.780;23.116;2023-03-01T10:13:55;4.90;;;3.00;;
55589;SDS011;41452;42.780;23.116;2023-03-01T10:16:35;4.35;;;3.05;;
55589;SDS011;41452;42.780;23.116;2023-03-01T10:19:36;3.90;;;2.30;;
55589;SDS011;41452;42.780;23.116;2023-03-01T10:22:05;4.72;;;2.65;;
55589;SDS011;41452;42.780;23.116;2023-03-01T10:24:34;4.88;;;2.88;;
55589;SDS011;41452;42.780;23.116;2023-03-01T10:27:03;2.97;;;2.28;;
55589;SDS011;41452;42.780;23.116;2023-03-01T10:29:36;4.18;;;2.53;;
55589;SDS011;41452;42.780;23.116;2023-03-01T10:32:06;3.70;;;2.30;;
55589;SDS011;41452;42.780;23.116;2023-03-01T10:34:33;2.92;;;2.25;;
55589;SDS011;41452;42.780;23.116;2023-03-01T10:37:10;5.07;;;2.60;;
55589;SDS011;41452;42.780;23.116;2023-03-01T10:39:40;5.50;;;2.72;;
55589;SDS011;41452;42.780;23.116;2023-03-01T10:43:05;3.65;;;2.15;;
55589;SDS011;41452;42.780;23.116;2023-03-01T10:47:41;4.07;;;2.63;;
55589;SDS011;41452;42.780;23.116;2023-03-01T10:50:22;3.70;;;2.30;;
55589;SDS011;41452;42.780;23.116;2023-03-01T10:53:01;3.20;;;2.17;;
55589;SDS011;41452;42.780;23.116;2023-03-01T10:55:35;5.03;;;1.55;;
55589;SDS011;41452;42.780;23.116;2023-03-01T10:58:16;3.00;;;1.70;;
55589;SDS011;41452;42.780;23.116;2023-03-01T11:00:50;2.80;;;1.65;;
55589;SDS011;41452;42.780;23.116;2023-03-01T11:03:37;2.20;;;1.50;;
55589;SDS011;41452;42.780;23.116;2023-03-01T11:11:04;4.38;;;2.05;;
55589;SDS011;41452;42.780;23.116;2023-03-01T11:16:28;3.08;;;1.77;;
55589;SDS011;41452;42.780;23.116;2023-03-01T11:18:57;3.20;;;1.33;;
55589;SDS011;41452;42.780;23.116;2023-03-01T11:21:30;3.97;;;2.30;;
55589;SDS011;41452;42.780;23.116;2023-03-01T11:23:59;2.95;;;1.88;;
55589;SDS011;41452;42.780;23.116;2023-03-01T11:26:27;3.03;;;1.85;;
55589;SDS011;41452;42.780;23.116;2023-03-01T11:28:56;3.22;;;1.83;;
55589;SDS011;41452;42.780;23.116;2023-03-01T11:31:27;2.75;;;1.90;;
55589;SDS011;41452;42.780;23.116;2023-03-01T11:34:04;4.78;;;2.78;;
55589;SDS011;41452;42.780;23.116;2023-03-01T11:36:44;4.80;;;2.45;;
55589;SDS011;41452;42.780;23.116;2023-03-01T11:39:22;5.10;;;1.98;;
55589;SDS011;41452;42.780;23.116;2023-03-01T11:45:26;3.08;;;1.83;;
55589;SDS011;41452;42.780;23.116;2023-03-01T11:50:48;2.17;;;1.52;;
55589;SDS011;41452;42.780;23.116;2023-03-01T12:20:06;1.30;;;0.90;;
55589;SDS011;41452;42.780;23.116;2023-03-01T12:25:29;4.93;;;1.65;;
55589;SDS011;41452;42.780;23.116;2023-03-01T12:28:24;3.78;;;1.95;;
55589;SDS011;41452;42.780;23.116;2023-03-01T12:31:08;4.03;;;1.58;;
55589;SDS011;41452;42.780;23.116;2023-03-01T12:34:07;3.97;;;1.42;;
55589;SDS011;41452;42.780;23.116;2023-03-01T12:36:55;3.50;;;1.85;;
55589;SDS011;41452;42.780;23.116;2023-03-01T12:44:55;3.42;;;1.42;;
55589;SDS011;41452;42.780;23.116;2023-03-01T12:50:17;2.80;;;1.73;;
55589;SDS011;41452;42.780;23.116;2023-03-01T12:52:58;3.85;;;1.50;;
55589;SDS011;41452;42.780;23.116;2023-03-01T12:55:31;3.25;;;1.50;;
55589;SDS011;41452;42.780;23.116;2023-03-01T13:06:39;3.50;;;1.88;;
55589;SDS011;41452;42.780;23.116;2023-03-01T13:09:34;3.55;;;1.70;;
55589;SDS011;41452;42.780;23.116;2023-03-01T13:12:02;6.05;;;1.70;;
55589;SDS011;41452;42.780;23.116;2023-03-01T13:16:56;3.08;;;1.40;;
55589;SDS011;41452;42.780;23.116;2023-03-01T13:19:22;2.85;;;1.38;;
55589;SDS011;41452;42.780;23.116;2023-03-01T13:21:49;3.35;;;1.73;;
55589;SDS011;41452;42.780;23.116;2023-03-01T13:24:26;5.55;;;2.05;;
55589;SDS011;41452;42.780;23.116;2023-03-01T13:29:54;5.05;;;1.65;;
55589;SDS011;41452;42.780;23.116;2023-03-01T13:32:34;3.03;;;1.60;;
55589;SDS011;41452;42.780;23.116;2023-03-01T13:35:41;3.47;;;1.80;;
55589;SDS011;41452;42.780;23.116;2023-03-01T13:37:52;6.63;;;1.60;;
55589;SDS011;41452;42.780;23.116;2023-03-01T13:40:57;3.28;;;1.75;;
55589;SDS011;41452;42.780;23.116;2023-03-01T13:43:28;4.10;;;2.10;;
55589;SDS011;41452;42.780;23.116;2023-03-01T13:45:55;4.60;;;2.17;;
55589;SDS011;41452;42.780;23.116;2023-03-01T13:48:23;4.72;;;1.70;;
55589;SDS011;41452;42.780;23.116;2023-03-01T13:50:59;3.92;;;1.77;;
55589;SDS011;41452;42.780;23.116;2023-03-01T13:53:34;9.38;;;2.00;;
55589;SDS011;41452;42.780;23.116;2023-03-01T13:56:07;3.40;;;1.70;;
55589;SDS011;41452;42.780;23.116;2023-03-01T13:58:55;8.02;;;2.47;;
55589;SDS011;41452;42.780;23.116;2023-03-01T14:01:38;6.80;;;1.80;;
55589;SDS011;41452;42.780;23.116;2023-03-01T14:04:18;4.18;;;2.00;;
55589;SDS011;41452;42.780;23.116;2023-03-01T14:06:45;6.28;;;1.83;;
55589;SDS011;41452;42.780;23.116;2023-03-01T14:14:39;4.85;;;2.50;;
55589;SDS011;41452;42.780;23.116;2023-03-01T14:19:35;5.55;;;2.75;;
55589;SDS011;41452;42.780;23.116;2023-03-01T14:22:20;4.63;;;2.78;;
55589;SDS011;41452;42.780;23.116;2023-03-01T14:24:51;4.03;;;1.80;;
55589;SDS011;41452;42.780;23.116;2023-03-01T14:27:20;4.43;;;2.33;;
55589;SDS011;41452;42.780;23.116;2023-03-01T14:29:58;3.55;;;2.15;;
55589;SDS011;41452;42.780;23.116;2023-03-01T14:32:30;3.95;;;2.20;;
55589;SDS011;41452;42.780;23.116;2023-03-01T14:34:57;3.60;;;2.08;;
55589;SDS011;41452;42.780;23.116;2023-03-01T14:42:27;3.70;;;2.50;;
55589;SDS011;41452;42.780;23.116;2023-03-01T14:44:55;5.53;;;2.72;;
55589;SDS011;41452;42.780;23.116;2023-03-01T14:47:29;4.70;;;2.22;;
55589;SDS011;41452;42.780;23.116;2023-03-01T14:49:58;5.10;;;2.70;;
55589;SDS011;41452;42.780;23.116;2023-03-01T14:52:39;5.47;;;2.63;;
55589;SDS011;41452;42.780;23.116;2023-03-01T14:55:13;7.40;;;2.47;;
55589;SDS011;41452;42.780;23.116;2023-03-01T14:57:43;5.53;;;2.10;;
55589;SDS011;41452;42.780;23.116;2023-03-01T15:00:22;5.05;;;2.00;;
55589;SDS011;41452;42.780;23.116;2023-03-01T15:02:53;5.38;;;2.45;;
55589;SDS011;41452;42.780;23.116;2023-03-01T15:05:28;4.40;;;2.60;;
55589;SDS011;41452;42.780;23.116;2023-03-01T15:07:56;5.60;;;2.47;;
55589;SDS011;41452;42.780;23.116;2023-03-01T15:10:25;6.45;;;2.55;;
55589;SDS011;41452;42.780;23.116;2023-03-01T15:13:19;4.75;;;2.53;;
55589;SDS011;41452;42.780;23.116;2023-03-01T15:15:47;8.52;;;2.65;;
55589;SDS011;41452;42.780;23.116;2023-03-01T15:18:22;6.25;;;2.35;;
55589;SDS011;41452;42.780;23.116;2023-03-01T15:20:52;3.55;;;1.85;;
55589;SDS011;41452;42.780;23.116;2023-03-01T15:23:23;4.95;;;2.20;;
55589;SDS011;41452;42.780;23.116;2023-03-01T15:25:51;5.03;;;2.13;;
55589;SDS011;41452;42.780;23.116;2023-03-01T15:28:25;9.73;;;2.30;;
55589;SDS011;41452;42.780;23.116;2023-03-01T15:30:54;5.63;;;2.15;;
55589;SDS011;41452;42.780;23.116;2023-03-01T15:35:58;6.63;;;2.95;;
55589;SDS011;41452;42.780;23.116;2023-03-01T15:38:27;10.43;;;2.58;;
55589;SDS011;41452;42.780;23.116;2023-03-01T15:41:04;3.55;;;2.10;;
55589;SDS011;41452;42.780;23.116;2023-03-01T15:43:46;3.65;;;2.25;;
55589;SDS011;41452;42.780;23.116;2023-03-01T15:46:45;7.38;;;3.55;;
55589;SDS011;41452;42.780;23.116;2023-03-01T15:49:04;4.95;;;2.90;;
55589;SDS011;41452;42.780;23.116;2023-03-01T15:51:44;5.38;;;2.80;;
55589;SDS011;41452;42.780;23.116;2023-03-01T15:54:19;7.43;;;3.67;;
55589;SDS011;41452;42.780;23.116;2023-03-01T15:56:47;4.82;;;2.38;;
55589;SDS011;41452;42.780;23.116;2023-03-01T15:59:13;5.18;;;2.90;;
55589;SDS011;41452;42.780;23.116;2023-03-01T16:01:39;14.75;;;3.55;;
55589;SDS011;41452;42.780;23.116;2023-03-01T16:04:05;6.72;;;2.92;;
55589;SDS011;41452;42.780;23.116;2023-03-01T16:06:30;6.15;;;3.15;;
55589;SDS011;41452;42.780;23.116;2023-03-01T16:08:56;6.43;;;3.28;;
55589;SDS011;41452;42.780;23.116;2023-03-01T16:11:21;6.10;;;2.75;;
55589;SDS011;41452;42.780;23.116;2023-03-01T16:13:47;6.00;;;2.72;;
55589;SDS011;41452;42.780;23.116;2023-03-01T16:16:13;5.28;;;2.15;;
55589;SDS011;41452;42.780;23.116;2023-03-01T16:18:46;5.68;;;2.90;;
55589;SDS011;41452;42.780;23.116;2023-03-01T16:21:13;6.55;;;2.85;;
55589;SDS011;41452;42.780;23.116;2023-03-01T16:23:42;5.03;;;3.45;;
55589;SDS011;41452;42.780;23.116;2023-03-01T16:26:08;5.65;;;3.03;;